createdAt,value
2019-01-30T00:00:06.743Z,25
2019-01-30T00:00:56.985Z,24.9
2019-01-30T00:01:46.868Z,24.9
2019-01-30T00:02:37.750Z,25
2019-01-30T00:03:27.710Z,25
2019-01-30T00:04:18.243Z,25.1
2019-01-30T00:05:07.000Z,25.1
2019-01-30T00:05:57.335Z,25.2
2019-01-30T00:06:46.822Z,25.3
2019-01-30T00:07:37.447Z,25.4
2019-01-30T00:08:26.937Z,25.5
2019-01-30T00:09:18.113Z,25.6
2019-01-30T00:10:07.939Z,25.6
2019-01-30T00:10:57.434Z,25.7
2019-01-30T00:11:48.027Z,25.8
2019-01-30T00:12:38.082Z,25.9
2019-01-30T00:13:27.572Z,25.9
2019-01-30T00:14:18.534Z,26
2019-01-30T00:15:07.974Z,26.1
2019-01-30T00:16:03.849Z,26.1
2019-01-30T00:16:48.052Z,26.2
2019-01-30T00:17:38.127Z,26.2
2019-01-30T00:18:29.049Z,26.1
2019-01-30T00:19:17.686Z,26
2019-01-30T00:20:08.422Z,25.9
2019-01-30T00:20:58.644Z,25.8
2019-01-30T00:21:48.179Z,25.7
2019-01-30T00:22:39.049Z,25.6
2019-01-30T00:23:28.886Z,25.5
2019-01-30T00:24:19.136Z,25.4
2019-01-30T00:25:08.371Z,25.4
2019-01-30T00:25:59.283Z,25.3
2019-01-30T00:26:48.229Z,25.3
2019-01-30T00:27:39.397Z,25.1
2019-01-30T00:28:29.170Z,24.9
2019-01-30T00:29:19.586Z,24.9
2019-01-30T00:30:11.503Z,24.9
2019-01-30T00:31:00.013Z,24.9
2019-01-30T00:31:49.126Z,25
2019-01-30T00:32:38.908Z,25.1
2019-01-30T00:33:28.951Z,25.1
2019-01-30T00:34:19.628Z,25.2
2019-01-30T00:35:09.340Z,25.3
2019-01-30T00:35:59.476Z,25.4
2019-01-30T00:36:48.648Z,25.6
2019-01-30T00:37:39.231Z,25.6
2019-01-30T00:38:29.861Z,25.8
2019-01-30T00:39:19.625Z,25.9
2019-01-30T00:40:10.613Z,25.9
2019-01-30T00:40:59.069Z,26
2019-01-30T00:41:48.695Z,26.1
2019-01-30T00:42:39.360Z,26.1
2019-01-30T00:43:30.195Z,26.2
2019-01-30T00:44:19.220Z,26.1
2019-01-30T00:45:09.842Z,26.1
2019-01-30T00:46:00.103Z,25.9
2019-01-30T00:46:50.473Z,25.8
2019-01-30T00:47:42.470Z,25.7
2019-01-30T00:48:30.560Z,25.6
2019-01-30T00:49:19.830Z,25.5
2019-01-30T00:50:10.085Z,25.4
2019-01-30T00:51:00.430Z,25.4
2019-01-30T00:51:50.480Z,25.4
2019-01-30T00:52:40.860Z,25.3
2019-01-30T00:53:31.172Z,25.2
2019-01-30T00:54:20.477Z,25
2019-01-30T00:55:11.003Z,25
2019-01-30T00:56:01.177Z,25
2019-01-30T00:56:51.103Z,25
2019-01-30T00:57:41.452Z,25.1
2019-01-30T00:58:30.757Z,25.1
2019-01-30T00:59:21.272Z,25.3
2019-01-30T01:00:20.472Z,25.3
2019-01-30T01:01:03.657Z,25.4
2019-01-30T01:01:50.977Z,25.5
2019-01-30T01:02:40.769Z,25.6
2019-01-30T01:03:31.339Z,25.7
2019-01-30T01:04:21.921Z,25.8
2019-01-30T01:05:11.681Z,25.9
2019-01-30T01:06:01.750Z,26
2019-01-30T01:06:51.819Z,26.1
2019-01-30T01:07:42.161Z,26.1
2019-01-30T01:08:31.909Z,26.3
2019-01-30T01:09:22.562Z,26.3
2019-01-30T01:10:11.516Z,26.3
2019-01-30T01:11:01.246Z,26.4
2019-01-30T01:11:51.650Z,26.4
2019-01-30T01:12:42.211Z,26.3
2019-01-30T01:13:30.962Z,26.2
2019-01-30T01:14:21.603Z,26
2019-01-30T01:15:12.708Z,25.9
2019-01-30T01:16:02.277Z,25.8
2019-01-30T01:16:52.760Z,25.8
2019-01-30T01:17:41.495Z,25.7
2019-01-30T01:18:31.658Z,25.6
2019-01-30T01:19:22.231Z,25.6
2019-01-30T01:20:12.485Z,25.5
2019-01-30T01:21:02.543Z,25.4
2019-01-30T01:21:52.559Z,25.3
2019-01-30T01:22:42.418Z,25.1
2019-01-30T01:23:33.623Z,25.1
2019-01-30T01:24:22.762Z,25
2019-01-30T01:25:12.572Z,24.9
2019-01-30T01:26:03.131Z,25
2019-01-30T01:26:53.448Z,25
2019-01-30T01:27:43.131Z,25.1
2019-01-30T01:28:33.098Z,25.2
2019-01-30T01:29:23.138Z,25.3
2019-01-30T01:30:13.023Z,25.3
2019-01-30T01:31:02.910Z,25.4
2019-01-30T01:31:53.886Z,25.5
2019-01-30T01:32:43.131Z,25.5
2019-01-30T01:33:33.407Z,25.4
2019-01-30T01:34:23.483Z,25.4
2019-01-30T01:35:12.175Z,25.4
2019-01-30T01:36:03.003Z,25.4
2019-01-30T01:36:53.599Z,25.4
2019-01-30T01:37:43.930Z,25.3
2019-01-30T01:38:33.696Z,25.3
2019-01-30T01:39:24.043Z,25.3
2019-01-30T01:40:13.579Z,25.3
2019-01-30T01:41:03.597Z,25.2
2019-01-30T01:41:54.225Z,25.2
2019-01-30T01:42:44.560Z,25.3
2019-01-30T01:43:33.516Z,25.3
2019-01-30T01:44:24.424Z,25.3
2019-01-30T01:45:14.181Z,25.2
2019-01-30T01:46:04.821Z,25.3
2019-01-30T01:46:54.570Z,25.3
2019-01-30T01:47:44.136Z,25.4
2019-01-30T01:48:34.759Z,25.4
2019-01-30T01:49:24.589Z,25.6
2019-01-30T01:50:14.812Z,25.6
2019-01-30T01:51:05.135Z,25.7
2019-01-30T01:51:55.451Z,25.8
2019-01-30T01:52:44.159Z,25.9
2019-01-30T01:53:34.209Z,25.9
2019-01-30T01:54:25.105Z,26.1
2019-01-30T01:55:15.194Z,26.1
2019-01-30T01:56:05.169Z,26.2
2019-01-30T01:56:55.353Z,26.3
2019-01-30T01:57:45.596Z,26.3
2019-01-30T01:58:35.090Z,26.3
2019-01-30T01:59:24.863Z,26.2
2019-01-30T02:00:14.661Z,26.1
2019-01-30T02:01:06.095Z,25.9
2019-01-30T02:01:55.024Z,25.8
2019-01-30T02:02:45.940Z,25.7
2019-01-30T02:03:36.270Z,25.6
2019-01-30T02:04:25.283Z,25.6
2019-01-30T02:05:15.649Z,25.5
2019-01-30T02:06:05.240Z,25.4
2019-01-30T02:06:55.453Z,25.4
2019-01-30T02:07:45.733Z,25.3
2019-01-30T02:08:35.860Z,25.1
2019-01-30T02:09:26.227Z,25.1
2019-01-30T02:10:14.297Z,24.9
2019-01-30T02:11:06.327Z,24.9
2019-01-30T02:11:56.275Z,24.9
2019-01-30T02:12:45.889Z,25
2019-01-30T02:13:36.218Z,25.1
2019-01-30T02:14:26.107Z,25.1
2019-01-30T02:15:16.064Z,25.2
2019-01-30T02:16:06.028Z,25.3
2019-01-30T02:16:56.627Z,25.4
2019-01-30T02:17:46.714Z,25.5
2019-01-30T02:18:36.754Z,25.6
2019-01-30T02:19:26.894Z,25.7
2019-01-30T02:20:16.127Z,25.8
2019-01-30T02:21:06.657Z,25.9
2019-01-30T02:21:57.270Z,25.9
2019-01-30T02:22:46.764Z,26.1
2019-01-30T02:23:36.358Z,26.1
2019-01-30T02:24:26.961Z,26.2
2019-01-30T02:25:17.324Z,26.2
2019-01-30T02:26:07.259Z,26.3
2019-01-30T02:26:56.771Z,26.3
2019-01-30T02:27:47.716Z,26.2
2019-01-30T02:28:37.699Z,26.1
2019-01-30T02:29:27.377Z,25.9
2019-01-30T02:30:17.390Z,25.8
2019-01-30T02:31:07.446Z,25.8
2019-01-30T02:31:57.761Z,25.6
2019-01-30T02:32:47.748Z,25.6
2019-01-30T02:33:37.795Z,25.5
2019-01-30T02:34:27.605Z,25.4
2019-01-30T02:35:16.899Z,25.4
2019-01-30T02:36:06.223Z,25.3
2019-01-30T02:36:58.157Z,25.2
2019-01-30T02:37:47.605Z,25.1
2019-01-30T02:38:37.778Z,25.1
2019-01-30T02:39:28.249Z,25.1
2019-01-30T02:40:18.177Z,25.1
2019-01-30T02:41:08.709Z,25.2
2019-01-30T02:41:57.445Z,25.3
2019-01-30T02:42:47.933Z,25.4
2019-01-30T02:43:37.751Z,25.4
2019-01-30T02:44:28.264Z,25.6
2019-01-30T02:45:19.055Z,25.6
2019-01-30T02:46:09.060Z,25.8
2019-01-30T02:46:58.455Z,25.9
2019-01-30T02:47:48.054Z,25.9
2019-01-30T02:48:38.436Z,26
2019-01-30T02:49:28.078Z,26.1
2019-01-30T02:50:18.700Z,26.2
2019-01-30T02:51:09.359Z,26.3
2019-01-30T02:51:59.368Z,26.3
2019-01-30T02:52:47.514Z,26.4
2019-01-30T02:53:38.775Z,26.4
2019-01-30T02:54:29.000Z,26.4
2019-01-30T02:55:19.400Z,26.5
2019-01-30T02:56:09.437Z,26.6
2019-01-30T02:56:59.407Z,26.5
2019-01-30T02:57:49.514Z,26.4
2019-01-30T02:58:39.802Z,26.3
2019-01-30T02:59:29.644Z,26.1
2019-01-30T03:00:20.149Z,26.1
2019-01-30T03:01:09.185Z,25.9
2019-01-30T03:01:59.454Z,25.8
2019-01-30T03:02:50.235Z,25.8
2019-01-30T03:03:40.167Z,25.7
2019-01-30T03:04:29.661Z,25.7
2019-01-30T03:05:20.134Z,25.5
2019-01-30T03:08:31.606Z,25.1
2019-01-30T03:09:20.787Z,25.1
2019-01-30T03:10:11.703Z,25.1
2019-01-30T03:11:01.284Z,25.1
2019-01-30T03:11:51.791Z,25.1
2019-01-30T03:12:41.846Z,25.2
2019-01-30T03:13:31.706Z,25.3
2019-01-30T03:14:21.761Z,25.3
2019-01-30T03:15:11.831Z,25.4
2019-01-30T03:16:02.061Z,25.5
2019-01-30T03:16:52.496Z,25.6
2019-01-30T03:17:42.428Z,25.6
2019-01-30T03:18:32.266Z,25.7
2019-01-30T03:19:21.478Z,25.6
2019-01-30T03:20:12.380Z,25.6
2019-01-30T03:21:02.673Z,25.6
2019-01-30T03:21:52.742Z,25.6
2019-01-30T03:22:42.245Z,25.5
2019-01-30T03:23:32.023Z,25.5
2019-01-30T03:24:21.989Z,25.4
2019-01-30T03:25:12.962Z,25.4
2019-01-30T03:26:03.150Z,25.4
2019-01-30T03:26:52.162Z,25.3
2019-01-30T03:27:42.121Z,25.3
2019-01-30T03:28:31.932Z,25.3
2019-01-30T03:29:22.714Z,25.3
2019-01-30T03:30:13.183Z,25.3
2019-01-30T03:31:22.276Z,25.3
2019-01-30T03:31:53.123Z,25.2
2019-01-30T03:32:42.701Z,25.3
2019-01-30T03:33:33.028Z,25.3
2019-01-30T03:34:22.817Z,25.3
2019-01-30T03:35:13.217Z,25.4
2019-01-30T03:36:03.514Z,25.4
2019-01-30T03:36:53.769Z,25.6
2019-01-30T03:37:43.034Z,25.6
2019-01-30T03:38:33.354Z,25.8
2019-01-30T03:39:23.414Z,25.8
2019-01-30T03:40:12.912Z,25.9
2019-01-30T03:41:03.237Z,26
2019-01-30T03:41:53.582Z,26.1
2019-01-30T03:42:43.710Z,26.1
2019-01-30T03:43:33.960Z,26.2
2019-01-30T03:44:23.880Z,26.3
2019-01-30T03:45:13.564Z,26.4
2019-01-30T03:46:03.842Z,26.4
2019-01-30T03:46:53.443Z,26.3
2019-01-30T03:47:44.324Z,26.1
2019-01-30T03:48:33.988Z,26.1
2019-01-30T03:49:24.646Z,25.9
2019-01-30T03:50:14.101Z,25.8
2019-01-30T03:51:04.209Z,25.8
2019-01-30T03:51:54.926Z,25.7
2019-01-30T03:52:44.898Z,25.6
2019-01-30T03:53:34.397Z,25.6
2019-01-30T03:54:24.693Z,25.5
2019-01-30T03:55:14.780Z,25.4
2019-01-30T03:56:03.405Z,25.3
2019-01-30T03:56:54.585Z,25.2
2019-01-30T03:57:44.954Z,25.1
2019-01-30T03:58:35.012Z,25.2
2019-01-30T03:59:24.502Z,25.3
2019-01-30T04:00:14.817Z,25.3
2019-01-30T04:01:05.330Z,25.4
2019-01-30T04:01:55.255Z,25.4
2019-01-30T04:02:45.250Z,25.5
2019-01-30T04:03:35.053Z,25.6
2019-01-30T04:04:25.670Z,25.8
2019-01-30T04:05:15.501Z,25.9
2019-01-30T04:06:05.228Z,25.9
2019-01-30T04:06:55.133Z,26
2019-01-30T04:07:45.090Z,26.1
2019-01-30T04:08:35.088Z,26.2
2019-01-30T04:09:25.241Z,26.3
2019-01-30T04:10:15.600Z,26.3
2019-01-30T04:11:05.608Z,26.4
2019-01-30T04:11:56.159Z,26.3
2019-01-30T04:12:46.227Z,26.2
2019-01-30T04:13:35.864Z,26.1
2019-01-30T04:14:25.812Z,25.9
2019-01-30T04:15:15.952Z,25.9
2019-01-30T04:16:06.162Z,25.8
2019-01-30T04:16:56.518Z,25.7
2019-01-30T04:17:46.477Z,25.6
2019-01-30T04:18:36.060Z,25.6
2019-01-30T04:19:25.870Z,25.5
2019-01-30T04:20:15.936Z,25.4
2019-01-30T04:21:06.236Z,25.3
2019-01-30T04:21:56.590Z,25.2
2019-01-30T04:22:46.388Z,25.1
2019-01-30T04:23:37.123Z,25.1
2019-01-30T04:24:27.077Z,25
2019-01-30T04:25:31.422Z,25.1
2019-01-30T04:26:07.020Z,25.1
2019-01-30T04:26:57.234Z,25.1
2019-01-30T04:27:46.300Z,25.3
2019-01-30T04:28:37.182Z,25.3
2019-01-30T04:29:26.981Z,25.4
2019-01-30T04:30:17.441Z,25.4
2019-01-30T04:31:07.205Z,25.6
2019-01-30T04:31:57.026Z,25.6
2019-01-30T04:32:46.843Z,25.8
2019-01-30T04:33:37.383Z,25.8
2019-01-30T04:34:27.876Z,25.9
2019-01-30T04:35:17.841Z,26
2019-01-30T04:36:07.085Z,26.1
2019-01-30T04:36:57.293Z,26.1
2019-01-30T04:37:47.971Z,26.3
2019-01-30T04:38:37.488Z,26.3
2019-01-30T04:39:28.167Z,26.3
2019-01-30T04:40:17.569Z,26.4
2019-01-30T04:41:07.660Z,26.4
2019-01-30T04:41:57.671Z,26.3
2019-01-30T04:42:47.782Z,26.2
2019-01-30T04:43:38.369Z,26.1
2019-01-30T04:44:27.852Z,26
2019-01-30T04:45:18.157Z,25.9
2019-01-30T04:46:08.513Z,25.8
2019-01-30T04:46:57.722Z,25.7
2019-01-30T04:47:48.189Z,25.6
2019-01-30T04:48:37.885Z,25.6
2019-01-30T04:49:28.745Z,25.6
2019-01-30T04:50:18.977Z,25.4
2019-01-30T04:51:08.592Z,25.3
2019-01-30T04:51:58.657Z,25.2
2019-01-30T04:52:48.180Z,25.2
2019-01-30T04:53:38.198Z,25.3
2019-01-30T04:54:28.547Z,25.3
2019-01-30T04:55:18.401Z,25.3
2019-01-30T04:56:08.889Z,25.4
2019-01-30T04:56:58.670Z,25.5
2019-01-30T04:57:49.054Z,25.5
2019-01-30T04:58:38.909Z,25.6
2019-01-30T04:59:29.152Z,25.8
2019-01-30T05:00:19.015Z,25.8
2019-01-30T05:01:08.991Z,25.9
2019-01-30T05:01:59.352Z,26
2019-01-30T05:02:49.728Z,25.9
2019-01-30T05:03:38.623Z,25.9
2019-01-30T05:04:28.671Z,25.9
2019-01-30T05:05:19.379Z,25.8
2019-01-30T05:06:09.124Z,25.8
2019-01-30T05:07:00.016Z,25.8
2019-01-30T05:07:49.205Z,25.7
2019-01-30T05:08:39.506Z,25.7
2019-01-30T05:09:29.978Z,25.6
2019-01-30T05:10:19.937Z,25.6
2019-01-30T05:11:09.959Z,25.5
2019-01-30T05:11:59.728Z,25.5
2019-01-30T05:12:50.171Z,25.5
2019-01-30T05:13:39.663Z,25.5
2019-01-30T05:14:29.340Z,25.5
2019-01-30T05:15:19.435Z,25.4
2019-01-30T05:16:09.915Z,25.4
2019-01-30T05:16:59.869Z,25.5
2019-01-30T05:17:49.865Z,25.6
2019-01-30T05:18:40.205Z,25.6
2019-01-30T05:19:30.738Z,25.7
2019-01-30T05:20:19.855Z,25.8
2019-01-30T05:21:10.472Z,25.9
2019-01-30T05:22:00.405Z,25.9
2019-01-30T05:22:50.855Z,26
2019-01-30T05:23:41.245Z,26.1
2019-01-30T05:24:30.775Z,26.2
2019-01-30T05:25:20.783Z,26.3
2019-01-30T05:26:10.161Z,26.3
2019-01-30T05:27:01.027Z,26.3
2019-01-30T05:27:50.926Z,26.3
2019-01-30T05:28:41.207Z,26.1
2019-01-30T05:29:30.942Z,26
2019-01-30T05:30:20.735Z,25.9
2019-01-30T05:31:11.412Z,25.8
2019-01-30T05:32:08.745Z,25.7
2019-01-30T05:32:51.180Z,25.6
2019-01-30T05:33:41.236Z,25.6
2019-01-30T05:34:31.829Z,25.5
2019-01-30T05:35:21.777Z,25.5
2019-01-30T05:36:11.154Z,25.3
2019-01-30T05:37:01.132Z,25.2
2019-01-30T05:37:54.952Z,25.1
2019-01-30T05:38:42.184Z,25
2019-01-30T05:39:31.664Z,24.9
2019-01-30T05:40:22.394Z,24.9
2019-01-30T05:41:12.011Z,24.9
2019-01-30T05:42:01.809Z,25
2019-01-30T05:42:52.131Z,25.1
2019-01-30T05:43:45.513Z,25.1
2019-01-30T05:44:32.408Z,25.2
2019-01-30T05:45:22.452Z,25.3
2019-01-30T05:46:11.776Z,25.4
2019-01-30T05:47:02.688Z,25.5
2019-01-30T05:47:52.628Z,25.6
2019-01-30T05:48:42.537Z,25.7
2019-01-30T05:49:35.266Z,25.8
2019-01-30T05:50:22.661Z,25.8
2019-01-30T05:51:12.446Z,25.9
2019-01-30T05:52:03.016Z,26
2019-01-30T05:52:52.280Z,26.1
2019-01-30T05:53:43.110Z,26.2
2019-01-30T05:54:32.643Z,26.3
2019-01-30T05:55:22.685Z,26.3
2019-01-30T05:56:13.011Z,26.3
2019-01-30T05:57:03.124Z,26.2
2019-01-30T05:57:52.900Z,26.1
2019-01-30T05:58:42.523Z,25.9
2019-01-30T05:59:33.032Z,25.9
2019-01-30T06:00:23.016Z,25.8
2019-01-30T06:01:13.375Z,25.6
2019-01-30T06:02:17.277Z,25.5
2019-01-30T06:02:53.594Z,25.4
2019-01-30T06:03:43.825Z,25.3
2019-01-30T06:06:30.537Z,25
2019-01-30T06:07:20.395Z,24.9
2019-01-30T06:08:10.957Z,24.9
2019-01-30T06:09:00.954Z,24.9
2019-01-30T06:09:51.004Z,24.9
2019-01-30T06:10:41.087Z,24.9
2019-01-30T06:11:31.425Z,25
2019-01-30T06:12:21.448Z,25.1
2019-01-30T06:13:11.796Z,25.1
2019-01-30T06:14:01.594Z,25.2
2019-01-30T06:14:51.528Z,25.3
2019-01-30T06:15:42.254Z,25.4
2019-01-30T06:16:32.007Z,25.5
2019-01-30T06:17:21.254Z,25.6
2019-01-30T06:18:11.884Z,25.7
2019-01-30T06:19:01.349Z,25.8
2019-01-30T06:19:51.143Z,25.9
2019-01-30T06:20:42.094Z,26
2019-01-30T06:21:31.808Z,26.1
2019-01-30T06:22:21.876Z,26.1
2019-01-30T06:23:12.039Z,26.2
2019-01-30T06:24:02.656Z,26.3
2019-01-30T06:24:52.696Z,26.3
2019-01-30T06:25:42.476Z,26.4
2019-01-30T06:26:32.433Z,26.4
2019-01-30T06:27:23.098Z,26.3
2019-01-30T06:28:13.175Z,26.1
2019-01-30T06:29:01.462Z,26
2019-01-30T06:29:52.649Z,25.8
2019-01-30T06:30:42.713Z,25.7
2019-01-30T06:31:34.830Z,25.6
2019-01-30T06:32:29.205Z,25.5
2019-01-30T06:33:12.613Z,25.4
2019-01-30T06:34:03.528Z,25.3
2019-01-30T06:34:53.599Z,25.3
2019-01-30T06:35:43.130Z,25.2
2019-01-30T06:36:32.303Z,25.1
2019-01-30T06:37:25.880Z,25.1
2019-01-30T06:38:12.748Z,25.1
2019-01-30T06:39:02.370Z,25.2
2019-01-30T06:39:52.946Z,25.3
2019-01-30T06:40:43.120Z,25.4
2019-01-30T06:41:33.166Z,25.4
2019-01-30T06:42:23.545Z,25.3
2019-01-30T06:43:12.811Z,25.3
2019-01-30T06:44:03.103Z,25.1
2019-01-30T06:44:54.014Z,25
2019-01-30T06:45:43.999Z,24.9
2019-01-30T06:46:34.109Z,24.8
2019-01-30T06:47:23.735Z,24.8
2019-01-30T06:48:14.105Z,24.7
2019-01-30T06:49:04.643Z,24.6
2019-01-30T06:49:54.624Z,24.5
2019-01-30T06:50:44.138Z,24.6
2019-01-30T06:51:33.863Z,24.5
2019-01-30T06:52:24.282Z,24.4
2019-01-30T06:53:14.321Z,24.4
2019-01-30T06:54:04.359Z,24.3
2019-01-30T06:54:53.849Z,24.3
2019-01-30T06:55:43.653Z,24.2
2019-01-30T06:56:34.534Z,24.3
2019-01-30T06:57:23.746Z,24.4
2019-01-30T06:58:13.834Z,24.4
2019-01-30T06:59:04.394Z,24.6
2019-01-30T06:59:54.167Z,24.6
2019-01-30T07:00:44.756Z,24.7
2019-01-30T07:01:33.574Z,24.8
2019-01-30T07:02:35.323Z,24.8
2019-01-30T07:03:15.231Z,24.9
2019-01-30T07:04:05.576Z,25
2019-01-30T07:06:31.617Z,25.1
2019-01-30T07:07:20.776Z,25.1
2019-01-30T07:08:11.256Z,25.1
2019-01-30T07:09:01.441Z,25
2019-01-30T07:09:51.513Z,25
2019-01-30T07:10:41.645Z,25
2019-01-30T07:11:31.698Z,24.9
2019-01-30T07:12:21.673Z,24.9
2019-01-30T07:13:11.213Z,24.9
2019-01-30T07:14:02.177Z,24.9
2019-01-30T07:14:51.021Z,24.9
2019-01-30T07:15:41.460Z,24.9
2019-01-30T07:16:31.673Z,24.9
2019-01-30T07:17:21.733Z,24.9
2019-01-30T07:18:10.973Z,24.9
2019-01-30T07:19:02.250Z,24.9
2019-01-30T07:19:51.918Z,24.9
2019-01-30T07:20:41.228Z,24.9
2019-01-30T07:21:31.788Z,25
2019-01-30T07:22:22.179Z,25
2019-01-30T07:23:11.879Z,24.9
2019-01-30T07:24:02.539Z,24.8
2019-01-30T07:24:51.781Z,24.7
2019-01-30T07:25:43.243Z,24.6
2019-01-30T07:26:32.363Z,24.5
2019-01-30T07:27:22.162Z,24.4
2019-01-30T07:28:12.501Z,24.3
2019-01-30T07:29:02.630Z,24.3
2019-01-30T07:29:52.314Z,24.2
2019-01-30T07:30:41.926Z,24.2
2019-01-30T07:31:33.179Z,24.2
2019-01-30T07:32:23.039Z,24.1
2019-01-30T07:33:12.841Z,24
2019-01-30T07:34:02.855Z,24
2019-01-30T07:34:52.180Z,23.9
2019-01-30T07:35:42.741Z,24.1
2019-01-30T07:36:33.367Z,24.1
2019-01-30T07:37:23.205Z,24.1
2019-01-30T07:38:12.352Z,24.3
2019-01-30T07:39:02.947Z,24.3
2019-01-30T07:39:53.680Z,24.4
2019-01-30T07:40:42.837Z,24.4
2019-01-30T07:41:33.400Z,24.5
2019-01-30T07:42:23.730Z,24.6
2019-01-30T07:43:13.232Z,24.6
2019-01-30T07:44:03.587Z,24.8
2019-01-30T07:44:57.922Z,24.8
2019-01-30T07:45:43.811Z,24.7
2019-01-30T07:46:33.470Z,24.6
2019-01-30T07:47:22.982Z,24.5
2019-01-30T07:48:14.097Z,24.4
2019-01-30T07:49:03.085Z,24.3
2019-01-30T07:49:53.739Z,24.3
2019-01-30T07:50:44.379Z,24.1
2019-01-30T07:51:33.100Z,24.1
2019-01-30T07:52:23.864Z,24.1
2019-01-30T07:53:14.463Z,24
2019-01-30T07:54:04.654Z,23.9
2019-01-30T07:54:53.754Z,23.9
2019-01-30T07:55:44.746Z,23.9
2019-01-30T07:56:36.294Z,23.9
2019-01-30T07:57:25.046Z,23.9
2019-01-30T07:58:14.547Z,23.8
2019-01-30T07:59:04.626Z,23.9
2019-01-30T07:59:55.034Z,23.9
2019-01-30T08:00:44.434Z,23.9
2019-01-30T08:01:35.431Z,23.9
2019-01-30T08:02:27.616Z,24.1
2019-01-30T08:03:15.203Z,24.1
2019-01-30T08:04:05.196Z,24.2
2019-01-30T08:04:54.153Z,24.3
2019-01-30T08:05:44.758Z,24.3
2019-01-30T08:06:34.279Z,24.4
2019-01-30T08:07:24.351Z,24.5
2019-01-30T08:08:15.214Z,24.6
2019-01-30T08:09:05.550Z,24.6
2019-01-30T08:09:54.858Z,24.5
2019-01-30T08:10:45.471Z,24.4
2019-01-30T08:11:37.598Z,24.3
2019-01-30T08:12:25.600Z,24.2
2019-01-30T08:13:15.042Z,24.1
2019-01-30T08:14:08.943Z,24.1
2019-01-30T08:14:55.123Z,24
2019-01-30T08:15:45.488Z,23.9
2019-01-30T08:16:36.098Z,23.9
2019-01-30T08:17:28.563Z,23.9
2019-01-30T08:18:15.943Z,23.8
2019-01-30T08:19:05.715Z,23.8
2019-01-30T08:19:57.873Z,23.8
2019-01-30T08:20:46.190Z,23.8
2019-01-30T08:21:36.522Z,23.8
2019-01-30T08:22:26.727Z,23.8
2019-01-30T08:23:18.734Z,23.8
2019-01-30T08:24:09.985Z,23.8
2019-01-30T08:24:58.800Z,23.8
2019-01-30T08:25:48.802Z,23.8
2019-01-30T08:26:39.621Z,23.9
2019-01-30T08:27:29.014Z,23.9
2019-01-30T08:28:21.884Z,24
2019-01-30T08:29:09.659Z,24.1
2019-01-30T08:29:59.203Z,24.1
2019-01-30T08:30:49.734Z,24.3
2019-01-30T08:31:39.231Z,24.4
2019-01-30T08:32:31.950Z,24.4
2019-01-30T08:33:17.816Z,24.4
2019-01-30T08:34:07.281Z,24.3
2019-01-30T08:34:57.609Z,24.3
2019-01-30T08:35:46.957Z,24.2
2019-01-30T08:36:37.224Z,24.1
2019-01-30T08:37:27.288Z,24
2019-01-30T08:38:17.321Z,23.9
2019-01-30T08:39:07.611Z,23.8
2019-01-30T08:39:57.442Z,23.8
2019-01-30T08:40:47.449Z,23.8
2019-01-30T08:41:37.879Z,23.7
2019-01-30T08:42:27.832Z,23.7
2019-01-30T08:43:17.053Z,23.7
2019-01-30T08:44:07.266Z,23.6
2019-01-30T08:44:58.155Z,23.7
2019-01-30T08:45:47.817Z,23.6
2019-01-30T08:46:37.936Z,23.7
2019-01-30T08:47:27.973Z,23.6
2019-01-30T08:48:16.971Z,23.6
2019-01-30T08:49:08.276Z,23.6
2019-01-30T08:49:57.505Z,23.7
2019-01-30T08:50:48.129Z,23.8
2019-01-30T08:51:38.448Z,23.8
2019-01-30T08:52:28.058Z,23.9
2019-01-30T08:53:18.383Z,24
2019-01-30T08:54:08.255Z,24.1
2019-01-30T08:54:57.602Z,24.2
2019-01-30T08:55:49.015Z,24.3
2019-01-30T08:56:58.865Z,24.4
2019-01-30T08:57:28.853Z,24.3
2019-01-30T08:58:18.662Z,24.3
2019-01-30T08:59:11.840Z,24.2
2019-01-30T08:59:57.835Z,24.1
2019-01-30T09:00:48.275Z,24
2019-01-30T09:01:39.140Z,23.9
2019-01-30T09:02:28.680Z,23.9
2019-01-30T09:03:22.221Z,23.8
2019-01-30T09:04:12.023Z,23.8
2019-01-30T09:04:58.815Z,23.7
2019-01-30T09:05:49.264Z,23.7
2019-01-30T09:06:39.600Z,23.7
2019-01-30T09:07:29.281Z,23.6
2019-01-30T09:08:19.797Z,23.6
2019-01-30T09:09:09.442Z,23.6
2019-01-30T09:09:59.454Z,23.6
2019-01-30T09:10:48.651Z,23.6
2019-01-30T09:11:39.259Z,23.6
2019-01-30T09:12:29.099Z,23.6
2019-01-30T09:13:19.264Z,23.6
2019-01-30T09:14:09.426Z,23.6
2019-01-30T09:14:59.877Z,23.7
2019-01-30T09:15:49.275Z,23.8
2019-01-30T09:16:40.162Z,23.8
2019-01-30T09:17:29.684Z,23.9
2019-01-30T09:18:20.586Z,24
2019-01-30T09:19:10.459Z,24.1
2019-01-30T09:20:00.894Z,24.2
2019-01-30T09:20:50.494Z,24.3
2019-01-30T09:21:39.949Z,24.3
2019-01-30T09:22:30.092Z,24.3
2019-01-30T09:23:20.389Z,24.2
2019-01-30T09:24:11.048Z,24.1
2019-01-30T09:25:00.848Z,24
2019-01-30T09:25:50.531Z,23.9
2019-01-30T09:26:40.068Z,23.8
2019-01-30T09:27:31.788Z,23.8
2019-01-30T09:28:20.973Z,23.7
2019-01-30T09:29:10.197Z,23.7
2019-01-30T09:29:59.682Z,23.6
2019-01-30T09:30:50.826Z,23.6
2019-01-30T09:31:41.345Z,23.6
2019-01-30T09:32:30.995Z,23.6
2019-01-30T09:33:32.341Z,23.6
2019-01-30T09:34:11.156Z,23.6
2019-01-30T09:35:00.443Z,23.6
2019-01-30T09:35:51.028Z,23.5
2019-01-30T09:36:41.701Z,23.5
2019-01-30T09:37:34.246Z,23.6
2019-01-30T09:38:21.253Z,23.6
2019-01-30T09:39:11.368Z,23.6
2019-01-30T09:40:01.910Z,23.8
2019-01-30T09:40:51.335Z,23.8
2019-01-30T09:41:42.089Z,23.8
2019-01-30T09:42:31.842Z,23.9
2019-01-30T09:43:21.927Z,24.1
2019-01-30T09:44:11.477Z,24.2
2019-01-30T09:45:01.980Z,24.3
2019-01-30T09:45:51.509Z,24.2
2019-01-30T09:46:42.633Z,24.1
2019-01-30T09:47:32.054Z,24
2019-01-30T09:48:21.499Z,23.9
2019-01-30T09:49:12.471Z,23.9
2019-01-30T09:50:02.566Z,23.8
2019-01-30T09:50:51.928Z,23.7
2019-01-30T09:51:42.622Z,23.7
2019-01-30T09:52:34.114Z,23.6
2019-01-30T09:53:22.856Z,23.6
2019-01-30T09:54:12.119Z,23.6
2019-01-30T09:55:02.648Z,23.6
2019-01-30T09:55:53.107Z,23.6
2019-01-30T09:56:42.568Z,23.6
2019-01-30T09:57:33.223Z,23.6
2019-01-30T09:58:25.408Z,23.6
2019-01-30T09:59:12.236Z,23.5
2019-01-30T10:00:03.129Z,23.5
2019-01-30T10:00:52.921Z,23.4
2019-01-30T10:01:42.979Z,23.6
2019-01-30T10:02:32.579Z,23.6
2019-01-30T10:03:23.089Z,23.7
2019-01-30T10:04:12.906Z,23.8
2019-01-30T10:05:02.988Z,23.8
2019-01-30T10:07:31.663Z,24.1
2019-01-30T10:08:20.647Z,24.2
2019-01-30T10:09:11.534Z,24.2
2019-01-30T10:10:00.886Z,24.1
2019-01-30T10:10:51.101Z,24.1
2019-01-30T10:11:39.958Z,24
2019-01-30T10:12:30.780Z,23.9
2019-01-30T10:13:21.252Z,23.9
2019-01-30T10:14:11.128Z,23.8
2019-01-30T10:15:00.919Z,23.8
2019-01-30T10:15:51.470Z,23.7
2019-01-30T10:16:41.235Z,23.6
2019-01-30T10:17:34.443Z,23.6
2019-01-30T10:18:21.980Z,23.6
2019-01-30T10:19:11.409Z,23.6
2019-01-30T10:20:01.750Z,23.6
2019-01-30T10:20:52.189Z,23.6
2019-01-30T10:21:42.108Z,23.6
2019-01-30T10:22:31.975Z,23.5
2019-01-30T10:23:21.957Z,23.5
2019-01-30T10:24:11.634Z,23.4
2019-01-30T10:25:01.606Z,23.5
2019-01-30T10:25:52.147Z,23.6
2019-01-30T10:26:41.924Z,23.6
2019-01-30T10:27:32.044Z,23.6
2019-01-30T10:28:24.075Z,23.8
2019-01-30T10:29:12.183Z,23.8
2019-01-30T10:30:05.188Z,23.9
2019-01-30T10:30:51.727Z,24
2019-01-30T10:31:42.828Z,24.1
2019-01-30T10:32:32.352Z,24.2
2019-01-30T10:33:23.110Z,24.1
2019-01-30T10:34:12.699Z,24.1
2019-01-30T10:35:02.947Z,24
2019-01-30T10:35:52.295Z,23.9
2019-01-30T10:36:42.868Z,23.8
2019-01-30T10:37:32.375Z,23.8
2019-01-30T10:38:23.197Z,23.7
2019-01-30T10:39:12.678Z,23.6
2019-01-30T10:40:03.347Z,23.6
2019-01-30T10:40:52.977Z,23.6
2019-01-30T10:41:43.489Z,23.6
2019-01-30T10:42:33.014Z,23.6
2019-01-30T10:43:23.670Z,23.6
2019-01-30T10:44:13.420Z,23.6
2019-01-30T10:45:03.768Z,23.6
2019-01-30T10:45:53.265Z,23.5
2019-01-30T10:46:43.082Z,23.5
2019-01-30T10:47:32.944Z,23.4
2019-01-30T10:48:23.671Z,23.4
2019-01-30T10:49:14.179Z,23.5
2019-01-30T10:50:03.091Z,23.6
2019-01-30T10:50:53.949Z,23.6
2019-01-30T10:51:43.161Z,23.7
2019-01-30T10:52:33.807Z,23.8
2019-01-30T10:53:23.589Z,23.9
2019-01-30T10:54:14.128Z,24.1
2019-01-30T10:55:04.441Z,24.2
2019-01-30T10:55:53.975Z,24.1
2019-01-30T10:56:44.846Z,24.1
2019-01-30T10:57:34.328Z,24
2019-01-30T10:58:23.896Z,23.9
2019-01-30T10:59:14.834Z,23.9
2019-01-30T11:00:04.689Z,23.8
2019-01-30T11:00:54.761Z,23.8
2019-01-30T11:01:45.211Z,23.7
2019-01-30T11:02:34.105Z,23.6
2019-01-30T11:03:24.323Z,23.6
2019-01-30T11:04:15.353Z,23.6
2019-01-30T11:05:04.571Z,23.5
2019-01-30T11:05:54.921Z,23.6
2019-01-30T11:06:45.007Z,23.5
2019-01-30T11:07:35.025Z,23.6
2019-01-30T11:08:24.905Z,23.6
2019-01-30T11:09:14.190Z,23.6
2019-01-30T11:10:04.941Z,23.6
2019-01-30T11:11:08.963Z,23.6
2019-01-30T11:11:45.580Z,23.6
2019-01-30T11:12:34.838Z,23.5
2019-01-30T11:13:25.433Z,23.4
2019-01-30T11:14:14.930Z,23.4
2019-01-30T11:15:08.147Z,23.4
2019-01-30T11:15:54.589Z,23.4
2019-01-30T11:16:45.590Z,23.4